Time,TemperatureF,DewpointF,PressureIn,WindDirection,WindDirectionDegrees,WindSpeedMPH,WindSpeedGustMPH,Humidity,HourlyPrecipIn,Conditions,Clouds,dailyrainin,SoftwareType,DateUTC
2013-02-02 00:00:00,18.5,13.9,30.43,North,0,0.0,0.0,82,0.00,,,0.00,WUHU216HW,2013-02-02 06:00:00,
2013-02-02 00:05:00,18.5,13.9,30.43,North,0,0.0,0.0,82,0.00,,,0.00,WUHU216HW,2013-02-02 06:05:00,
2013-02-02 00:10:00,18.7,14.0,30.42,North,0,0.0,0.0,82,0.00,,,0.00,WUHU216HW,2013-02-02 06:10:00,
2013-02-02 00:15:00,18.7,14.3,30.42,North,0,0.0,0.0,83,0.00,,,0.00,WUHU216HW,2013-02-02 06:15:00,
2013-02-02 00:20:00,18.7,14.3,30.42,North,0,0.0,0.0,83,0.00,,,0.00,WUHU216HW,2013-02-02 06:20:00,
2013-02-02 00:23:00,18.9,14.5,30.42,North,0,0.0,0.0,83,0.00,,,0.00,WUHU216HW,2013-02-02 06:23:00,
2013-02-02 00:29:00,19.1,14.7,30.41,North,0,0.0,0.0,83,0.00,,,0.00,WUHU216HW,2013-02-02 06:29:00,
2013-02-02 00:35:00,19.1,14.7,30.41,North,0,0.0,0.0,83,0.00,,,0.00,WUHU216HW,2013-02-02 06:35:00,
2013-02-02 00:41:00,19.3,14.9,30.41,North,0,0.0,0.0,83,0.00,,,0.00,WUHU216HW,2013-02-02 06:41:00,
2013-02-02 00:47:00,19.6,15.2,30.40,North,0,0.0,0.0,83,0.00,,,0.00,WUHU216HW,2013-02-02 06:47:00,
2013-02-02 00:52:00,19.8,15.4,30.40,North,0,0.0,0.0,83,0.00,,,0.00,WUHU216HW,2013-02-02 06:52:00,
2013-02-02 00:59:00,20.2,15.8,30.40,North,0,0.0,0.0,83,0.00,,,0.00,WUHU216HW,2013-02-02 06:59:00,
2013-02-02 01:13:00,20.5,16.1,30.39,North,0,0.0,0.0,83,0.00,,,0.00,WUHU216HW,2013-02-02 07:13:00,
2013-02-02 01:18:00,20.9,16.7,30.38,North,0,0.0,0.0,84,0.00,,,0.00,WUHU216HW,2013-02-02 07:18:00,
2013-02-02 01:23:00,21.1,16.9,30.39,North,0,0.0,0.0,84,0.00,,,0.00,WUHU216HW,2013-02-02 07:23:00,
2013-02-02 01:28:00,21.2,17.1,30.38,North,0,0.0,0.0,84,0.00,,,0.00,WUHU216HW,2013-02-02 07:28:00,
2013-02-02 01:33:00,21.4,17.3,30.38,North,0,0.0,0.0,84,0.00,,,0.00,WUHU216HW,2013-02-02 07:33:00,
2013-02-02 01:38:00,21.6,17.5,30.38,North,0,0.0,0.0,84,0.00,,,0.00,WUHU216HW,2013-02-02 07:38:00,
2013-02-02 01:43:00,22.0,17.8,30.38,North,0,0.0,0.0,84,0.00,,,0.00,WUHU216HW,2013-02-02 07:43:00,
2013-02-02 01:48:00,22.1,17.7,30.38,North,0,0.0,0.0,83,0.00,,,0.00,WUHU216HW,2013-02-02 07:48:00,
2013-02-02 01:53:00,22.3,17.9,30.38,North,0,0.0,0.0,83,0.00,,,0.00,WUHU216HW,2013-02-02 07:53:00,
2013-02-02 01:58:00,22.5,18.1,30.37,North,0,0.0,0.0,83,0.00,,,0.00,WUHU216HW,2013-02-02 07:58:00,
2013-02-02 02:05:00,22.7,18.3,30.37,North,0,0.0,0.0,83,0.00,,,0.00,WUHU216HW,2013-02-02 08:05:00,
2013-02-02 02:10:00,22.7,18.0,30.37,North,0,0.0,0.0,82,0.00,,,0.00,WUHU216HW,2013-02-02 08:10:00,
2013-02-02 02:15:00,22.9,18.2,30.37,North,0,0.0,0.0,82,0.00,,,0.00,WUHU216HW,2013-02-02 08:15:00,
2013-02-02 02:20:00,22.9,18.2,30.37,North,0,0.0,0.0,82,0.00,,,0.00,WUHU216HW,2013-02-02 08:20:00,
2013-02-02 02:25:00,23.0,18.4,30.37,North,0,0.0,0.0,82,0.00,,,0.00,WUHU216HW,2013-02-02 08:25:00,
2013-02-02 02:30:00,23.0,18.4,30.36,North,0,0.0,0.0,82,0.00,,,0.00,WUHU216HW,2013-02-02 08:30:00,
2013-02-02 02:35:00,23.0,18.4,30.36,North,0,0.0,0.0,82,0.00,,,0.00,WUHU216HW,2013-02-02 08:35:00,
2013-02-02 02:40:00,23.0,18.4,30.35,North,0,0.0,0.0,82,0.00,,,0.00,WUHU216HW,2013-02-02 08:40:00,
2013-02-02 02:45:00,23.2,18.5,30.35,North,0,0.0,0.0,82,0.00,,,0.00,WUHU216HW,2013-02-02 08:45:00,
2013-02-02 02:50:00,23.2,18.8,30.35,North,0,0.0,0.0,83,0.00,,,0.00,WUHU216HW,2013-02-02 08:50:00,
2013-02-02 02:55:00,23.2,18.8,30.35,North,0,0.0,0.0,83,0.00,,,0.00,WUHU216HW,2013-02-02 08:55:00,
2013-02-02 03:00:00,23.0,18.9,30.35,North,0,0.0,0.0,84,0.00,,,0.00,WUHU216HW,2013-02-02 09:00:00,
2013-02-02 03:05:00,23.0,18.9,30.35,North,0,0.0,0.0,84,0.00,,,0.00,WUHU216HW,2013-02-02 09:05:00,
2013-02-02 03:10:00,23.0,19.2,30.35,North,0,0.0,0.0,85,0.00,,,0.00,WUHU216HW,2013-02-02 09:10:00,
2013-02-02 03:15:00,23.0,19.2,30.35,North,0,0.0,0.0,85,0.00,,,0.00,WUHU216HW,2013-02-02 09:15:00,
2013-02-02 03:20:00,23.0,19.2,30.34,North,0,0.0,0.0,85,0.00,,,0.00,WUHU216HW,2013-02-02 09:20:00,
2013-02-02 03:25:00,23.0,19.2,30.34,North,0,0.0,0.0,85,0.00,,,0.00,WUHU216HW,2013-02-02 09:25:00,
2013-02-02 03:30:00,23.0,19.2,30.34,North,0,0.0,0.0,85,0.00,,,0.00,WUHU216HW,2013-02-02 09:30:00,
2013-02-02 03:35:00,23.2,19.4,30.34,North,0,0.0,0.0,85,0.00,,,0.00,WUHU216HW,2013-02-02 09:35:00,
2013-02-02 03:40:00,23.2,19.4,30.33,North,0,0.0,0.0,85,0.00,,,0.00,WUHU216HW,2013-02-02 09:40:00,
2013-02-02 03:45:00,23.2,19.6,30.33,North,0,0.0,0.0,86,0.00,,,0.00,WUHU216HW,2013-02-02 09:45:00,
2013-02-02 03:50:00,23.4,19.8,30.33,North,0,0.0,0.0,86,0.00,,,0.00,WUHU216HW,2013-02-02 09:50:00,
2013-02-02 03:55:00,23.4,19.8,30.33,North,0,0.0,0.0,86,0.00,,,0.00,WUHU216HW,2013-02-02 09:55:00,
2013-02-02 04:00:00,23.4,19.8,30.33,North,0,0.0,0.0,86,0.00,,,0.00,WUHU216HW,2013-02-02 10:00:00,
2013-02-02 04:05:00,23.4,20.1,30.32,North,0,0.0,0.0,87,0.00,,,0.00,WUHU216HW,2013-02-02 10:05:00,
2013-02-02 04:10:00,23.4,20.1,30.32,North,0,0.0,0.0,87,0.00,,,0.00,WUHU216HW,2013-02-02 10:10:00,
2013-02-02 04:15:00,23.4,20.1,30.32,North,0,0.0,0.0,87,0.00,,,0.00,WUHU216HW,2013-02-02 10:15:00,
2013-02-02 04:20:00,23.4,20.1,30.32,North,0,0.0,0.0,87,0.00,,,0.00,WUHU216HW,2013-02-02 10:20:00,
2013-02-02 04:25:00,23.4,20.1,30.32,North,0,0.0,0.0,87,0.00,,,0.00,WUHU216HW,2013-02-02 10:25:00,
2013-02-02 04:30:00,23.6,20.3,30.32,North,0,0.0,0.0,87,0.00,,,0.00,WUHU216HW,2013-02-02 10:30:00,
2013-02-02 04:35:00,23.6,20.3,30.31,North,0,0.0,0.0,87,0.00,,,0.00,WUHU216HW,2013-02-02 10:35:00,
2013-02-02 04:40:00,23.6,20.3,30.31,North,0,0.0,0.0,87,0.00,,,0.00,WUHU216HW,2013-02-02 10:40:00,
2013-02-02 04:45:00,23.6,20.3,30.31,North,0,0.0,0.0,87,0.00,,,0.00,WUHU216HW,2013-02-02 10:45:00,
2013-02-02 04:50:00,23.8,20.4,30.32,North,0,0.0,0.0,87,0.00,,,0.00,WUHU216HW,2013-02-02 10:50:00,
2013-02-02 04:55:00,23.8,20.4,30.32,North,0,0.0,0.0,87,0.00,,,0.00,WUHU216HW,2013-02-02 10:55:00,
2013-02-02 05:00:00,23.8,20.4,30.31,North,0,0.0,0.0,87,0.00,,,0.00,WUHU216HW,2013-02-02 11:00:00,
2013-02-02 05:05:00,23.8,20.4,30.32,North,0,0.0,0.0,87,0.00,,,0.00,WUHU216HW,2013-02-02 11:05:00,
2013-02-02 05:10:00,23.8,20.4,30.32,North,0,0.0,0.0,87,0.00,,,0.00,WUHU216HW,2013-02-02 11:10:00,
2013-02-02 05:15:00,23.8,20.4,30.31,North,0,0.0,0.0,87,0.00,,,0.00,WUHU216HW,2013-02-02 11:15:00,
2013-02-02 05:20:00,23.9,20.6,30.31,North,0,0.0,0.0,87,0.00,,,0.00,WUHU216HW,2013-02-02 11:20:00,
2013-02-02 05:25:00,23.9,20.6,30.32,North,0,0.0,0.0,87,0.00,,,0.00,WUHU216HW,2013-02-02 11:25:00,
2013-02-02 05:30:00,23.9,20.6,30.32,North,0,0.0,0.0,87,0.00,,,0.00,WUHU216HW,2013-02-02 11:30:00,
2013-02-02 05:35:00,23.9,20.6,30.32,North,0,0.0,0.0,87,0.00,,,0.00,WUHU216HW,2013-02-02 11:35:00,
2013-02-02 05:40:00,24.1,20.8,30.32,North,0,0.0,0.0,87,0.00,,,0.00,WUHU216HW,2013-02-02 11:40:00,
2013-02-02 05:45:00,24.1,20.8,30.31,North,0,0.0,0.0,87,0.00,,,0.00,WUHU216HW,2013-02-02 11:45:00,
2013-02-02 05:50:00,24.1,20.8,30.32,North,0,0.0,0.0,87,0.00,,,0.00,WUHU216HW,2013-02-02 11:50:00,
2013-02-02 05:55:00,24.1,20.8,30.31,North,0,0.0,0.0,87,0.00,,,0.00,WUHU216HW,2013-02-02 11:55:00,
2013-02-02 06:00:00,24.1,20.8,30.31,North,0,0.0,0.0,87,0.00,,,0.00,WUHU216HW,2013-02-02 12:00:00,
2013-02-02 06:05:00,24.3,21.0,30.32,North,0,0.0,0.0,87,0.00,,,0.00,WUHU216HW,2013-02-02 12:05:00,
2013-02-02 06:10:00,24.3,20.7,30.32,North,0,0.0,0.0,86,0.00,,,0.00,WUHU216HW,2013-02-02 12:10:00,
2013-02-02 06:15:00,24.3,20.7,30.32,North,0,0.0,0.0,86,0.00,,,0.00,WUHU216HW,2013-02-02 12:15:00,
2013-02-02 06:20:00,24.3,20.7,30.32,North,0,0.0,0.0,86,0.00,,,0.00,WUHU216HW,2013-02-02 12:20:00,
2013-02-02 06:25:00,24.3,20.7,30.32,North,0,0.0,0.0,86,0.00,,,0.00,WUHU216HW,2013-02-02 12:25:00,
2013-02-02 06:30:00,24.5,20.9,30.31,North,0,0.0,0.0,86,0.00,,,0.00,WUHU216HW,2013-02-02 12:30:00,
2013-02-02 06:35:00,24.5,20.9,30.31,North,0,0.0,0.0,86,0.00,,,0.00,WUHU216HW,2013-02-02 12:35:00,
2013-02-02 06:40:00,24.5,20.9,30.32,North,0,0.0,0.0,86,0.00,,,0.00,WUHU216HW,2013-02-02 12:40:00,
2013-02-02 06:45:00,24.5,20.9,30.32,North,0,0.0,0.0,86,0.00,,,0.00,WUHU216HW,2013-02-02 12:45:00,
2013-02-02 06:50:00,24.7,21.1,30.32,North,0,0.0,0.0,86,0.00,,,0.00,WUHU216HW,2013-02-02 12:50:00,
2013-02-02 06:55:00,24.7,21.1,30.33,North,0,0.0,0.0,86,0.00,,,0.00,WUHU216HW,2013-02-02 12:55:00,
2013-02-02 07:00:00,24.7,21.1,30.32,North,0,0.0,0.0,86,0.00,,,0.00,WUHU216HW,2013-02-02 13:00:00,
2013-02-02 07:05:00,24.7,21.1,30.33,North,0,0.0,0.0,86,0.00,,,0.00,WUHU216HW,2013-02-02 13:05:00,
2013-02-02 07:10:00,24.7,21.1,30.33,North,0,0.0,0.0,86,0.00,,,0.00,WUHU216HW,2013-02-02 13:10:00,
2013-02-02 07:15:00,24.7,21.1,30.33,North,0,0.0,0.0,86,0.00,,,0.00,WUHU216HW,2013-02-02 13:15:00,
2013-02-02 07:20:00,24.7,21.1,30.33,North,0,0.0,0.0,86,0.00,,,0.00,WUHU216HW,2013-02-02 13:20:00,
2013-02-02 07:25:00,24.7,21.1,30.34,North,0,0.0,0.0,86,0.00,,,0.00,WUHU216HW,2013-02-02 13:25:00,
2013-02-02 07:30:00,24.8,21.2,30.34,North,0,0.0,0.0,86,0.00,,,0.00,WUHU216HW,2013-02-02 13:30:00,
2013-02-02 07:35:00,24.8,21.0,30.34,North,0,0.0,0.0,85,0.00,,,0.00,WUHU216HW,2013-02-02 13:35:00,
2013-02-02 07:40:00,24.8,21.0,30.34,North,0,0.0,0.0,85,0.00,,,0.00,WUHU216HW,2013-02-02 13:40:00,
2013-02-02 07:45:00,24.8,20.7,30.34,North,0,0.0,0.0,84,0.00,,,0.00,WUHU216HW,2013-02-02 13:45:00,
2013-02-02 07:50:00,25.0,20.9,30.34,North,0,0.0,0.0,84,0.00,,,0.00,WUHU216HW,2013-02-02 13:50:00,
2013-02-02 07:55:00,25.0,20.9,30.34,North,0,0.0,0.0,84,0.00,,,0.00,WUHU216HW,2013-02-02 13:55:00,
2013-02-02 08:00:00,25.0,20.4,30.34,North,0,0.0,0.0,82,0.00,,,0.00,WUHU216HW,2013-02-02 14:00:00,
2013-02-02 08:05:00,25.0,20.4,30.35,North,0,0.0,0.0,82,0.00,,,0.00,WUHU216HW,2013-02-02 14:05:00,
2013-02-02 08:10:00,24.8,20.2,30.35,North,0,0.0,0.0,82,0.00,,,0.00,WUHU216HW,2013-02-02 14:10:00,
2013-02-02 08:15:00,24.8,19.9,30.35,North,0,0.0,0.0,81,0.00,,,0.00,WUHU216HW,2013-02-02 14:15:00,
2013-02-02 08:20:00,24.5,19.5,30.35,North,0,0.0,0.0,81,0.00,,,0.00,WUHU216HW,2013-02-02 14:20:00,
2013-02-02 08:25:00,24.5,19.3,30.36,North,0,0.0,0.0,80,0.00,,,0.00,WUHU216HW,2013-02-02 14:25:00,
2013-02-02 08:30:00,24.1,18.5,30.36,North,0,0.0,0.0,79,0.00,,,0.00,WUHU216HW,2013-02-02 14:30:00,
2013-02-02 08:35:00,23.6,17.7,30.36,North,0,0.0,0.0,78,0.00,,,0.00,WUHU216HW,2013-02-02 14:35:00,
2013-02-02 08:40:00,23.2,17.1,30.37,North,0,0.0,0.0,77,0.00,,,0.00,WUHU216HW,2013-02-02 14:40:00,
2013-02-02 08:45:00,23.0,17.2,30.37,North,0,0.0,0.0,78,0.00,,,0.00,WUHU216HW,2013-02-02 14:45:00,
2013-02-02 08:50:00,22.3,15.8,30.37,North,0,0.0,0.0,76,0.00,,,0.00,WUHU216HW,2013-02-02 14:50:00,
2013-02-02 08:55:00,21.6,15.5,30.38,North,0,0.0,0.0,77,0.00,,,0.00,WUHU216HW,2013-02-02 14:55:00,
2013-02-02 09:00:00,21.2,15.1,30.38,North,0,0.0,0.0,77,0.00,,,0.00,WUHU216HW,2013-02-02 15:00:00,
2013-02-02 09:05:00,20.9,14.4,30.38,North,0,0.0,0.0,76,0.00,,,0.00,WUHU216HW,2013-02-02 15:05:00,
2013-02-02 09:10:00,20.9,14.4,30.38,North,0,0.0,0.0,76,0.00,,,0.00,WUHU216HW,2013-02-02 15:10:00,
2013-02-02 09:15:00,20.5,14.0,30.38,North,0,0.0,0.0,76,0.00,,,0.00,WUHU216HW,2013-02-02 15:15:00,
2013-02-02 09:20:00,20.2,13.7,30.38,North,0,0.0,0.0,76,0.00,,,0.00,WUHU216HW,2013-02-02 15:20:00,
2013-02-02 09:25:00,20.2,13.7,30.39,North,0,0.0,0.0,76,0.00,,,0.00,WUHU216HW,2013-02-02 15:25:00,
2013-02-02 09:30:00,20.2,13.4,30.39,North,0,0.0,0.0,75,0.00,,,0.00,WUHU216HW,2013-02-02 15:30:00,
2013-02-02 09:36:00,19.8,13.3,30.40,North,0,0.0,0.0,76,0.00,,,0.00,WUHU216HW,2013-02-02 15:36:00,
2013-02-02 09:40:00,19.8,13.3,30.40,North,0,0.0,0.0,76,0.00,,,0.00,WUHU216HW,2013-02-02 15:40:00,
2013-02-02 09:45:00,19.6,13.5,30.40,North,0,0.0,0.0,77,0.00,,,0.00,WUHU216HW,2013-02-02 15:45:00,
2013-02-02 09:50:00,19.3,13.2,30.40,North,0,0.0,0.0,77,0.00,,,0.00,WUHU216HW,2013-02-02 15:50:00,
2013-02-02 09:55:00,19.1,13.0,30.40,North,0,0.0,0.0,77,0.00,,,0.00,WUHU216HW,2013-02-02 15:55:00,
2013-02-02 10:00:00,19.1,13.2,30.40,North,0,0.0,0.0,78,0.00,,,0.00,WUHU216HW,2013-02-02 16:00:00,
2013-02-02 10:05:00,19.1,13.0,30.41,North,0,0.0,0.0,77,0.00,,,0.00,WUHU216HW,2013-02-02 16:05:00,
2013-02-02 10:11:00,19.1,13.0,30.41,North,0,0.0,0.0,77,0.00,,,0.00,WUHU216HW,2013-02-02 16:11:00,
2013-02-02 10:15:00,18.9,12.2,30.42,North,0,0.0,0.0,75,0.00,,,0.00,WUHU216HW,2013-02-02 16:15:00,
2013-02-02 10:21:00,18.7,12.0,30.42,North,0,0.0,0.0,75,0.00,,,0.00,WUHU216HW,2013-02-02 16:21:00,
2013-02-02 10:25:00,18.7,12.3,30.42,North,0,0.0,0.0,76,0.00,,,0.00,WUHU216HW,2013-02-02 16:25:00,
2013-02-02 10:30:00,18.9,12.2,30.43,North,0,0.0,0.0,75,0.00,,,0.00,WUHU216HW,2013-02-02 16:30:00,
2013-02-02 10:35:00,18.9,12.5,30.43,North,0,0.0,0.0,76,0.00,,,0.00,WUHU216HW,2013-02-02 16:35:00,
2013-02-02 10:40:00,19.3,12.8,30.43,North,0,0.0,0.0,76,0.00,,,0.00,WUHU216HW,2013-02-02 16:40:00,
2013-02-02 10:46:00,19.4,13.0,30.43,North,0,0.0,0.0,76,0.00,,,0.00,WUHU216HW,2013-02-02 16:46:00,
2013-02-02 10:50:00,19.6,12.6,30.43,North,0,0.0,0.0,74,0.00,,,0.00,WUHU216HW,2013-02-02 16:50:00,
2013-02-02 10:55:00,19.3,12.3,30.43,North,0,0.0,0.0,74,0.00,,,0.00,WUHU216HW,2013-02-02 16:55:00,
2013-02-02 11:01:00,19.8,13.1,30.43,North,0,0.0,0.0,75,0.00,,,0.00,WUHU216HW,2013-02-02 17:01:00,
2013-02-02 11:06:00,20.0,12.3,30.43,North,0,0.0,0.0,72,0.00,,,0.00,WUHU216HW,2013-02-02 17:06:00,
2013-02-02 11:10:00,20.0,12.6,30.43,North,0,0.0,0.0,73,0.00,,,0.00,WUHU216HW,2013-02-02 17:10:00,
2013-02-02 11:16:00,20.2,13.2,30.43,North,0,0.0,0.0,74,0.00,,,0.00,WUHU216HW,2013-02-02 17:16:00,
2013-02-02 11:21:00,20.5,12.9,30.44,North,0,0.0,0.0,72,0.00,,,0.00,WUHU216HW,2013-02-02 17:21:00,
2013-02-02 11:26:00,20.2,12.2,30.44,North,0,0.0,0.0,71,0.00,,,0.00,WUHU216HW,2013-02-02 17:26:00,
2013-02-02 11:31:00,19.8,11.2,30.44,North,0,0.0,0.0,69,0.00,,,0.00,WUHU216HW,2013-02-02 17:31:00,
2013-02-02 11:35:00,19.3,11.0,30.44,North,0,0.0,0.0,70,0.00,,,0.00,WUHU216HW,2013-02-02 17:35:00,
2013-02-02 11:40:00,19.6,11.6,30.43,North,0,0.0,0.0,71,0.00,,,0.00,WUHU216HW,2013-02-02 17:40:00,
2013-02-02 11:45:00,19.8,11.2,30.44,North,0,0.0,0.0,69,0.00,,,0.00,WUHU216HW,2013-02-02 17:45:00,
2013-02-02 11:50:00,19.8,11.8,30.43,North,0,0.0,0.0,71,0.00,,,0.00,WUHU216HW,2013-02-02 17:50:00,
2013-02-02 11:55:00,20.5,12.9,30.43,North,0,0.0,0.0,72,0.00,,,0.00,WUHU216HW,2013-02-02 17:55:00,
2013-02-02 12:00:00,21.2,12.6,30.43,North,0,0.0,0.0,69,0.00,,,0.00,WUHU216HW,2013-02-02 18:00:00,
2013-02-02 12:05:00,21.1,12.4,30.43,North,0,0.0,0.0,69,0.00,,,0.00,WUHU216HW,2013-02-02 18:05:00,
2013-02-02 12:10:00,20.3,11.3,30.43,North,0,0.0,0.0,68,0.00,,,0.00,WUHU216HW,2013-02-02 18:10:00,
2013-02-02 12:15:00,19.8,11.2,30.42,North,0,0.0,0.0,69,0.00,,,0.00,WUHU216HW,2013-02-02 18:15:00,
2013-02-02 12:20:00,20.0,12.3,30.43,North,0,0.0,0.0,72,0.00,,,0.00,WUHU216HW,2013-02-02 18:20:00,
2013-02-02 12:25:00,20.5,12.9,30.43,North,0,0.0,0.0,72,0.00,,,0.00,WUHU216HW,2013-02-02 18:25:00,
2013-02-02 12:30:00,20.5,12.2,30.42,North,0,0.0,0.0,70,0.00,,,0.00,WUHU216HW,2013-02-02 18:30:00,
2013-02-02 12:35:00,20.5,12.5,30.42,North,0,0.0,0.0,71,0.00,,,0.00,WUHU216HW,2013-02-02 18:35:00,
2013-02-02 12:40:00,20.3,12.1,30.43,North,0,0.0,0.0,70,0.00,,,0.00,WUHU216HW,2013-02-02 18:40:00,
2013-02-02 12:45:00,20.3,11.7,30.43,North,0,0.0,0.0,69,0.00,,,0.00,WUHU216HW,2013-02-02 18:45:00,
2013-02-02 12:50:00,20.2,11.5,30.43,North,0,0.0,0.0,69,0.00,,,0.00,WUHU216HW,2013-02-02 18:50:00,
2013-02-02 12:55:00,20.2,11.5,30.43,North,0,0.0,0.0,69,0.00,,,0.00,WUHU216HW,2013-02-02 18:55:00,
2013-02-02 13:00:00,20.2,11.5,30.43,North,0,0.0,0.0,69,0.00,,,0.00,WUHU216HW,2013-02-02 19:00:00,
2013-02-02 13:05:00,20.3,11.7,30.42,North,0,0.0,0.0,69,0.00,,,0.00,WUHU216HW,2013-02-02 19:05:00,
2013-02-02 13:10:00,20.5,11.9,30.42,North,0,0.0,0.0,69,0.00,,,0.00,WUHU216HW,2013-02-02 19:10:00,
2013-02-02 13:15:00,20.5,11.9,30.43,North,0,0.0,0.0,69,0.00,,,0.00,WUHU216HW,2013-02-02 19:15:00,
2013-02-02 13:20:00,20.9,12.2,30.43,North,0,0.0,0.0,69,0.00,,,0.00,WUHU216HW,2013-02-02 19:20:00,
2013-02-02 13:25:00,21.1,12.4,30.43,North,0,0.0,0.0,69,0.00,,,0.00,WUHU216HW,2013-02-02 19:25:00,
2013-02-02 13:30:00,20.7,11.4,30.43,North,0,0.0,0.0,67,0.00,,,0.00,WUHU216HW,2013-02-02 19:30:00,
2013-02-02 13:35:00,20.5,11.3,30.43,North,0,0.0,0.0,67,0.00,,,0.00,WUHU216HW,2013-02-02 19:35:00,
2013-02-02 13:40:00,20.3,11.1,30.43,North,0,0.0,0.0,67,0.00,,,0.00,WUHU216HW,2013-02-02 19:40:00,
2013-02-02 13:45:00,20.3,11.7,30.43,North,0,0.0,0.0,69,0.00,,,0.00,WUHU216HW,2013-02-02 19:45:00,
2013-02-02 13:50:00,20.2,10.9,30.43,North,0,0.0,0.0,67,0.00,,,0.00,WUHU216HW,2013-02-02 19:50:00,
2013-02-02 13:55:00,20.2,11.2,30.43,North,0,0.0,0.0,68,0.00,,,0.00,WUHU216HW,2013-02-02 19:55:00,
2013-02-02 14:00:00,20.5,11.9,30.43,North,0,0.0,0.0,69,0.00,,,0.00,WUHU216HW,2013-02-02 20:00:00,
2013-02-02 14:05:00,20.5,11.5,30.43,North,0,0.0,0.0,68,0.00,,,0.00,WUHU216HW,2013-02-02 20:05:00,
2013-02-02 14:10:00,20.7,11.4,30.43,North,0,0.0,0.0,67,0.00,,,0.00,WUHU216HW,2013-02-02 20:10:00,
2013-02-02 14:15:00,20.7,11.7,30.43,North,0,0.0,0.0,68,0.00,,,0.00,WUHU216HW,2013-02-02 20:15:00,
2013-02-02 14:20:00,21.1,11.8,30.43,North,0,0.0,0.0,67,0.00,,,0.00,WUHU216HW,2013-02-02 20:20:00,
2013-02-02 14:26:00,21.1,11.1,30.43,North,0,0.0,0.0,65,0.00,,,0.00,WUHU216HW,2013-02-02 20:26:00,
2013-02-02 14:31:00,20.5,10.5,30.44,North,0,0.0,0.0,65,0.00,,,0.00,WUHU216HW,2013-02-02 20:31:00,
2013-02-02 14:36:00,20.5,10.5,30.44,North,0,0.0,0.0,65,0.00,,,0.00,WUHU216HW,2013-02-02 20:36:00,
2013-02-02 14:41:00,20.7,11.4,30.44,North,0,0.0,0.0,67,0.00,,,0.00,WUHU216HW,2013-02-02 20:41:00,
2013-02-02 14:46:00,21.1,11.4,30.44,North,0,0.0,0.0,66,0.00,,,0.00,WUHU216HW,2013-02-02 20:46:00,
2013-02-02 14:51:00,21.2,11.6,30.44,North,0,0.0,0.0,66,0.00,,,0.00,WUHU216HW,2013-02-02 20:51:00,
2013-02-02 14:56:00,21.1,11.1,30.44,North,0,0.0,0.0,65,0.00,,,0.00,WUHU216HW,2013-02-02 20:56:00,
2013-02-02 15:00:00,21.1,11.8,30.44,North,0,0.0,0.0,67,0.00,,,0.00,WUHU216HW,2013-02-02 21:00:00,
2013-02-02 15:05:00,20.9,11.3,30.44,North,0,0.0,0.0,66,0.00,,,0.00,WUHU216HW,2013-02-02 21:05:00,
2013-02-02 15:10:00,20.9,11.3,30.44,North,0,0.0,0.0,66,0.00,,,0.00,WUHU216HW,2013-02-02 21:10:00,
2013-02-02 15:16:00,20.9,10.9,30.44,North,0,0.0,0.0,65,0.00,,,0.00,WUHU216HW,2013-02-02 21:16:00,
2013-02-02 15:21:00,20.7,11.4,30.44,North,0,0.0,0.0,67,0.00,,,0.00,WUHU216HW,2013-02-02 21:21:00,
2013-02-02 15:25:00,20.5,10.5,30.44,North,0,0.0,0.0,65,0.00,,,0.00,WUHU216HW,2013-02-02 21:25:00,
2013-02-02 15:30:00,20.5,11.3,30.44,North,0,0.0,0.0,67,0.00,,,0.00,WUHU216HW,2013-02-02 21:30:00,
2013-02-02 15:35:00,20.5,10.9,30.43,North,0,0.0,0.0,66,0.00,,,0.00,WUHU216HW,2013-02-02 21:35:00,
2013-02-02 15:41:00,20.5,11.5,30.43,North,0,0.0,0.0,68,0.00,,,0.00,WUHU216HW,2013-02-02 21:41:00,
2013-02-02 15:46:00,20.5,11.5,30.43,North,0,0.0,0.0,68,0.00,,,0.00,WUHU216HW,2013-02-02 21:46:00,
2013-02-02 15:51:00,20.3,11.3,30.43,North,0,0.0,0.0,68,0.00,,,0.00,WUHU216HW,2013-02-02 21:51:00,
2013-02-02 15:56:00,20.0,10.4,30.43,North,0,0.0,0.0,66,0.00,,,0.00,WUHU216HW,2013-02-02 21:56:00,
2013-02-02 16:00:00,19.8,10.2,30.43,North,0,0.0,0.0,66,0.00,,,0.00,WUHU216HW,2013-02-02 22:00:00,
2013-02-02 16:06:00,19.8,10.5,30.43,North,0,0.0,0.0,67,0.00,,,0.00,WUHU216HW,2013-02-02 22:06:00,
2013-02-02 16:10:00,19.6,10.4,30.44,North,0,0.0,0.0,67,0.00,,,0.00,WUHU216HW,2013-02-02 22:10:00,
2013-02-02 16:16:00,19.4,10.4,30.44,North,0,0.0,0.0,68,0.00,,,0.00,WUHU216HW,2013-02-02 22:16:00,
2013-02-02 16:21:00,19.3,10.6,30.44,North,0,0.0,0.0,69,0.00,,,0.00,WUHU216HW,2013-02-02 22:21:00,
2013-02-02 16:26:00,19.4,10.8,30.44,North,0,0.0,0.0,69,0.00,,,0.00,WUHU216HW,2013-02-02 22:26:00,
2013-02-02 16:31:00,19.3,10.6,30.44,North,0,0.0,0.0,69,0.00,,,0.00,WUHU216HW,2013-02-02 22:31:00,
2013-02-02 16:36:00,19.1,10.5,30.44,North,0,0.0,0.0,69,0.00,,,0.00,WUHU216HW,2013-02-02 22:36:00,
2013-02-02 16:41:00,18.9,10.4,30.44,North,0,0.0,0.0,69,0.00,,,0.00,WUHU216HW,2013-02-02 22:41:00,
2013-02-02 16:46:00,18.5,10.0,30.44,North,0,0.0,0.0,69,0.00,,,0.00,WUHU216HW,2013-02-02 22:46:00,
2013-02-02 16:51:00,18.4,9.8,30.44,North,0,0.0,0.0,69,0.00,,,0.00,WUHU216HW,2013-02-02 22:51:00,
2013-02-02 16:56:00,18.2,10.0,30.44,North,0,0.0,0.0,70,0.00,,,0.00,WUHU216HW,2013-02-02 22:56:00,
2013-02-02 17:01:00,18.0,10.2,30.44,North,0,0.0,0.0,71,0.00,,,0.00,WUHU216HW,2013-02-02 23:01:00,
2013-02-02 17:06:00,17.8,10.0,30.44,North,0,0.0,0.0,71,0.00,,,0.00,WUHU216HW,2013-02-02 23:06:00,
2013-02-02 17:11:00,17.8,10.3,30.44,North,0,0.0,0.0,72,0.00,,,0.00,WUHU216HW,2013-02-02 23:11:00,
2013-02-02 17:16:00,17.8,10.3,30.44,North,0,0.0,0.0,72,0.00,,,0.00,WUHU216HW,2013-02-02 23:16:00,
2013-02-02 17:21:00,17.6,9.8,30.44,North,0,0.0,0.0,71,0.00,,,0.00,WUHU216HW,2013-02-02 23:21:00,
2013-02-02 17:26:00,17.5,9.9,30.44,North,0,0.0,0.0,72,0.00,,,0.00,WUHU216HW,2013-02-02 23:26:00,
2013-02-02 17:31:00,17.1,9.6,30.44,North,0,0.0,0.0,72,0.00,,,0.00,WUHU216HW,2013-02-02 23:31:00,
2013-02-02 17:36:00,16.9,9.5,30.44,North,0,0.0,0.0,72,0.00,,,0.00,WUHU216HW,2013-02-02 23:36:00,
2013-02-02 17:40:00,16.7,9.6,30.44,North,0,0.0,0.0,73,0.00,,,0.00,WUHU216HW,2013-02-02 23:40:00,
2013-02-02 17:45:00,16.6,9.4,30.43,North,0,0.0,0.0,73,0.00,,,0.00,WUHU216HW,2013-02-02 23:45:00,
2013-02-02 17:50:00,16.4,9.5,30.44,North,0,0.0,0.0,74,0.00,,,0.00,WUHU216HW,2013-02-02 23:50:00,
2013-02-02 17:55:00,16.2,9.3,30.44,North,0,0.0,0.0,74,0.00,,,0.00,WUHU216HW,2013-02-02 23:55:00,
2013-02-02 18:00:00,16.2,9.3,30.44,North,0,0.0,0.0,74,0.00,,,0.00,WUHU216HW,2013-02-03 00:00:00,
2013-02-02 18:05:00,16.2,9.6,30.44,North,0,0.0,0.0,75,0.00,,,0.00,WUHU216HW,2013-02-03 00:05:00,
2013-02-02 18:10:00,16.2,9.6,30.43,North,0,0.0,0.0,75,0.00,,,0.00,WUHU216HW,2013-02-03 00:10:00,
2013-02-02 18:15:00,16.0,9.5,30.43,North,0,0.0,0.0,75,0.00,,,0.00,WUHU216HW,2013-02-03 00:15:00,
2013-02-02 18:20:00,15.8,9.3,30.43,North,0,0.0,0.0,75,0.00,,,0.00,WUHU216HW,2013-02-03 00:20:00,
2013-02-02 18:25:00,15.7,9.4,30.43,North,0,0.0,0.0,76,0.00,,,0.00,WUHU216HW,2013-02-03 00:25:00,
2013-02-02 18:30:00,15.5,9.3,30.44,North,0,0.0,0.0,76,0.00,,,0.00,WUHU216HW,2013-02-03 00:30:00,
2013-02-02 18:35:00,15.5,9.3,30.44,North,0,0.0,0.0,76,0.00,,,0.00,WUHU216HW,2013-02-03 00:35:00,
2013-02-02 18:40:00,15.5,9.3,30.43,North,0,0.0,0.0,76,0.00,,,0.00,WUHU216HW,2013-02-03 00:40:00,
2013-02-02 18:45:00,15.5,9.3,30.43,North,0,0.0,0.0,76,0.00,,,0.00,WUHU216HW,2013-02-03 00:45:00,
2013-02-02 18:50:00,15.5,9.3,30.43,North,0,0.0,0.0,76,0.00,,,0.00,WUHU216HW,2013-02-03 00:50:00,
2013-02-02 18:55:00,15.5,9.3,30.43,North,0,0.0,0.0,76,0.00,,,0.00,WUHU216HW,2013-02-03 00:55:00,
2013-02-02 19:00:00,15.5,9.3,30.43,North,0,0.0,0.0,76,0.00,,,0.00,WUHU216HW,2013-02-03 01:00:00,
2013-02-02 19:05:00,15.7,9.7,30.42,North,0,0.0,0.0,77,0.00,,,0.00,WUHU216HW,2013-02-03 01:05:00,
2013-02-02 19:10:00,15.7,9.7,30.43,North,0,0.0,0.0,77,0.00,,,0.00,WUHU216HW,2013-02-03 01:10:00,
2013-02-02 19:15:00,15.8,10.2,30.43,North,0,0.0,0.0,78,0.00,,,0.00,WUHU216HW,2013-02-03 01:15:00,
2013-02-02 19:20:00,15.8,10.2,30.43,North,0,0.0,0.0,78,0.00,,,0.00,WUHU216HW,2013-02-03 01:20:00,
2013-02-02 19:25:00,15.8,10.2,30.43,North,0,0.0,0.0,78,0.00,,,0.00,WUHU216HW,2013-02-03 01:25:00,
2013-02-02 19:30:00,15.7,9.7,30.43,North,0,0.0,0.0,77,0.00,,,0.00,WUHU216HW,2013-02-03 01:30:00,
2013-02-02 19:35:00,15.5,9.3,30.43,North,0,0.0,0.0,76,0.00,,,0.00,WUHU216HW,2013-02-03 01:35:00,
2013-02-02 19:40:00,15.1,8.9,30.42,North,0,0.0,0.0,76,0.00,,,0.00,WUHU216HW,2013-02-03 01:40:00,
2013-02-02 19:45:00,14.8,8.6,30.42,North,0,0.0,0.0,76,0.00,,,0.00,WUHU216HW,2013-02-03 01:45:00,
2013-02-02 19:50:00,14.4,8.5,30.42,North,0,0.0,0.0,77,0.00,,,0.00,WUHU216HW,2013-02-03 01:50:00,
2013-02-02 19:55:00,14.2,8.3,30.41,North,0,0.0,0.0,77,0.00,,,0.00,WUHU216HW,2013-02-03 01:55:00,
2013-02-02 20:00:00,14.0,8.1,30.41,North,0,0.0,0.0,77,0.00,,,0.00,WUHU216HW,2013-02-03 02:00:00,
2013-02-02 20:05:00,13.9,7.9,30.41,North,0,0.0,0.0,77,0.00,,,0.00,WUHU216HW,2013-02-03 02:05:00,
2013-02-02 20:10:00,13.5,7.6,30.41,North,0,0.0,0.0,77,0.00,,,0.00,WUHU216HW,2013-02-03 02:10:00,
2013-02-02 20:15:00,13.3,7.4,30.40,North,0,0.0,0.0,77,0.00,,,0.00,WUHU216HW,2013-02-03 02:15:00,
2013-02-02 20:20:00,13.1,7.2,30.40,North,0,0.0,0.0,77,0.00,,,0.00,WUHU216HW,2013-02-03 02:20:00,
2013-02-02 20:25:00,12.8,7.2,30.40,North,0,0.0,0.0,78,0.00,,,0.00,WUHU216HW,2013-02-03 02:25:00,
2013-02-02 20:30:00,12.6,7.0,30.41,North,0,0.0,0.0,78,0.00,,,0.00,WUHU216HW,2013-02-03 02:30:00,
2013-02-02 20:35:00,12.8,7.2,30.40,North,0,0.0,0.0,78,0.00,,,0.00,WUHU216HW,2013-02-03 02:35:00,
2013-02-02 20:40:00,13.1,7.8,30.40,North,0,0.0,0.0,79,0.00,,,0.00,WUHU216HW,2013-02-03 02:40:00,
2013-02-02 20:45:00,13.3,8.0,30.39,North,0,0.0,0.0,79,0.00,,,0.00,WUHU216HW,2013-02-03 02:45:00,
2013-02-02 20:50:00,13.7,8.4,30.40,North,0,0.0,0.0,79,0.00,,,0.00,WUHU216HW,2013-02-03 02:50:00,
2013-02-02 20:55:00,14.0,8.7,30.40,North,0,0.0,0.0,79,0.00,,,0.00,WUHU216HW,2013-02-03 02:55:00,
2013-02-02 21:00:00,14.2,8.9,30.40,North,0,0.0,0.0,79,0.00,,,0.00,WUHU216HW,2013-02-03 03:00:00,
2013-02-02 21:05:00,14.4,9.1,30.40,North,0,0.0,0.0,79,0.00,,,0.00,WUHU216HW,2013-02-03 03:05:00,
2013-02-02 21:10:00,14.6,9.5,30.40,North,0,0.0,0.0,80,0.00,,,0.00,WUHU216HW,2013-02-03 03:10:00,
2013-02-02 21:15:00,14.8,9.7,30.39,North,0,0.0,0.0,80,0.00,,,0.00,WUHU216HW,2013-02-03 03:15:00,
2013-02-02 21:20:00,14.8,9.7,30.39,North,0,0.0,0.0,80,0.00,,,0.00,WUHU216HW,2013-02-03 03:20:00,
2013-02-02 21:25:00,14.8,9.7,30.39,North,0,0.0,0.0,80,0.00,,,0.00,WUHU216HW,2013-02-03 03:25:00,
2013-02-02 21:30:00,14.9,9.9,30.38,North,0,0.0,0.0,80,0.00,,,0.00,WUHU216HW,2013-02-03 03:30:00,
2013-02-02 21:35:00,14.9,9.6,30.39,North,0,0.0,0.0,79,0.00,,,0.00,WUHU216HW,2013-02-03 03:35:00,
2013-02-02 21:40:00,15.1,10.1,30.38,North,0,0.0,0.0,80,0.00,,,0.00,WUHU216HW,2013-02-03 03:40:00,
2013-02-02 21:45:00,15.1,10.1,30.38,North,0,0.0,0.0,80,0.00,,,0.00,WUHU216HW,2013-02-03 03:45:00,
2013-02-02 21:50:00,15.5,10.4,30.38,North,0,0.0,0.0,80,0.00,,,0.00,WUHU216HW,2013-02-03 03:50:00,
2013-02-02 21:55:00,15.5,10.4,30.38,North,0,0.0,0.0,80,0.00,,,0.00,WUHU216HW,2013-02-03 03:55:00,
2013-02-02 22:00:00,15.5,10.4,30.38,North,0,0.0,0.0,80,0.00,,,0.00,WUHU216HW,2013-02-03 04:00:00,
2013-02-02 22:05:00,15.7,10.6,30.38,North,0,0.0,0.0,80,0.00,,,0.00,WUHU216HW,2013-02-03 04:05:00,
2013-02-02 22:10:00,15.8,10.8,30.38,North,0,0.0,0.0,80,0.00,,,0.00,WUHU216HW,2013-02-03 04:10:00,
2013-02-02 22:15:00,16.0,11.0,30.38,North,0,0.0,0.0,80,0.00,,,0.00,WUHU216HW,2013-02-03 04:15:00,
2013-02-02 22:20:00,16.0,10.6,30.38,North,0,0.0,0.0,79,0.00,,,0.00,WUHU216HW,2013-02-03 04:20:00,
2013-02-02 22:25:00,16.0,10.6,30.38,North,0,0.0,0.0,79,0.00,,,0.00,WUHU216HW,2013-02-03 04:25:00,
2013-02-02 22:30:00,16.0,10.6,30.37,North,0,0.0,0.0,79,0.00,,,0.00,WUHU216HW,2013-02-03 04:30:00,
2013-02-02 22:35:00,16.0,10.6,30.37,North,0,0.0,0.0,79,0.00,,,0.00,WUHU216HW,2013-02-03 04:35:00,
2013-02-02 22:40:00,16.0,10.6,30.36,North,0,0.0,0.0,79,0.00,,,0.00,WUHU216HW,2013-02-03 04:40:00,
2013-02-02 22:45:00,16.0,11.0,30.36,North,0,0.0,0.0,80,0.00,,,0.00,WUHU216HW,2013-02-03 04:45:00,
2013-02-02 22:50:00,16.0,11.0,30.36,North,0,0.0,0.0,80,0.00,,,0.00,WUHU216HW,2013-02-03 04:50:00,
2013-02-02 22:55:00,16.2,11.2,30.35,North,0,0.0,0.0,80,0.00,,,0.00,WUHU216HW,2013-02-03 04:55:00,
2013-02-02 23:00:00,16.0,11.0,30.35,North,0,0.0,0.0,80,0.00,,,0.00,WUHU216HW,2013-02-03 05:00:00,
2013-02-02 23:05:00,16.0,11.3,30.36,North,0,0.0,0.0,81,0.00,,,0.00,WUHU216HW,2013-02-03 05:05:00,
2013-02-02 23:10:00,16.2,11.3,30.35,North,0,0.0,0.0,81,0.00,,,0.00,WUHU216HW,2013-02-03 05:10:00,
2013-02-02 23:15:00,16.2,11.3,30.35,North,0,0.0,0.0,81,0.00,,,0.00,WUHU216HW,2013-02-03 05:15:00,
2013-02-02 23:20:00,16.2,11.3,30.35,North,0,0.0,0.0,81,0.00,,,0.00,WUHU216HW,2013-02-03 05:20:00,
2013-02-02 23:25:00,16.2,11.3,30.35,North,0,0.0,0.0,81,0.00,,,0.00,WUHU216HW,2013-02-03 05:25:00,
2013-02-02 23:30:00,16.2,11.3,30.35,North,0,0.0,0.0,81,0.00,,,0.00,WUHU216HW,2013-02-03 05:30:00,
2013-02-02 23:35:00,16.2,11.3,30.35,North,0,0.0,0.0,81,0.00,,,0.00,WUHU216HW,2013-02-03 05:35:00,
2013-02-02 23:40:00,16.2,11.3,30.35,North,0,0.0,0.0,81,0.00,,,0.00,WUHU216HW,2013-02-03 05:40:00,
2013-02-02 23:45:00,16.4,11.5,30.35,North,0,0.0,0.0,81,0.00,,,0.00,WUHU216HW,2013-02-03 05:45:00,
2013-02-02 23:50:00,16.4,11.8,30.34,North,0,0.0,0.0,82,0.00,,,0.00,WUHU216HW,2013-02-03 05:50:00,
2013-02-02 23:55:00,16.4,11.8,30.35,North,0,0.0,0.0,82,0.00,,,0.00,WUHU216HW,2013-02-03 05:55:00,